Time;durP1;ratioP1;P1;durP2;ratioP2;P2;SDS_P1;SDS_P2;PMS_P1;PMS_P2;Temp;Humidity;BMP_temperature;BMP_pressure;BME280_temperature;BME280_humidity;BME280_pressure;Samples;Min_cycle;Max_cycle;Signal;HPM_P1;HPM_P2
2021/09/17 00:02:55;;;;;;;14.93;13.47;;;;;;;16.60;100.00;99997.28;20986239;28;20288;-66
2021/09/17 00:12:57;;;;;;;14.23;12.77;;;;;;;16.39;100.00;99999.31;20961858;28;20231;-65
2021/09/17 00:23:01;;;;;;;14.23;12.17;;;;;;;16.38;100.00;99987.69;20984253;28;20719;-66
2021/09/17 00:33:04;;;;;;;15.27;12.17;;;;;;;16.35;100.00;99987.09;20961015;28;20300;-67
2021/09/17 00:43:08;;;;;;;12.90;11.60;;;;;;;16.19;100.00;99988.53;20982062;28;20223;-65
2021/09/17 00:53:10;;;;;;;14.03;12.57;;;;;;;15.95;100.00;99974.63;20921253;28;20774;-66
2021/09/17 01:03:14;;;;;;;12.90;11.70;;;;;;;15.61;100.00;99971.50;20891136;28;20228;-65
2021/09/17 01:13:17;;;;;;;13.97;12.53;;;;;;;15.40;100.00;99971.56;20889972;28;20289;-66
2021/09/17 01:23:21;;;;;;;13.63;12.23;;;;;;;15.29;100.00;99973.53;20882077;28;20631;-65
2021/09/17 01:33:24;;;;;;;11.50;10.30;;;;;;;15.17;100.00;99955.81;20895593;28;20575;-65
2021/09/17 01:43:28;;;;;;;12.23;10.17;;;;;;;15.16;100.00;99954.09;20872432;28;20237;-66
2021/09/17 01:53:33;;;;;;;9.40;8.60;;;;;;;15.28;100.00;99959.22;20894496;28;20223;-65
2021/09/17 02:03:36;;;;;;;9.97;8.97;;;;;;;15.29;100.00;99950.19;20871844;28;20227;-65
2021/09/17 02:13:39;;;;;;;9.13;8.30;;;;;;;15.33;100.00;99946.25;20891233;28;20731;-65
2021/09/17 02:23:42;;;;;;;11.23;10.23;;;;;;;15.38;100.00;99933.22;20876025;28;20234;-68
2021/09/17 02:33:45;;;;;;;7.97;7.27;;;;;;;15.35;100.00;99913.81;20886297;28;20561;-67
2021/09/17 02:43:48;;;;;;;7.97;7.23;;;;;;;15.17;100.00;99916.34;20882494;28;20266;-66
2021/09/17 02:53:51;;;;;;;7.90;7.30;;;;;;;15.02;100.00;99917.69;20880865;28;20223;-67
2021/09/17 03:03:54;;;;;;;7.93;7.23;;;;;;;14.87;100.00;99916.38;20907137;28;20707;-65
2021/09/17 03:13:56;;;;;;;7.10;6.40;;;;;;;14.87;100.00;99908.31;20884911;28;20227;-65
2021/09/17 03:24:02;;;;;;;7.30;6.80;;;;;;;14.75;100.00;99892.28;20906086;28;20230;-65
2021/09/17 03:34:04;;;;;;;8.57;7.87;;;;;;;14.66;100.00;99898.47;20914735;28;20239;-64
2021/09/17 03:44:08;;;;;;;7.87;7.17;;;;;;;14.59;100.00;99897.34;20959440;28;20222;-64
2021/09/17 03:54:10;;;;;;;7.30;6.67;;;;;;;14.55;100.00;99909.31;20997623;28;20377;-66
2021/09/17 04:04:14;;;;;;;7.30;6.60;;;;;;;14.49;100.00;99891.03;20963913;28;20632;-64
2021/09/17 04:14:16;;;;;;;6.20;5.70;;;;;;;14.46;100.00;99902.06;20972891;28;20228;-64
2021/09/17 04:24:20;;;;;;;6.07;5.53;;;;;;;14.52;100.00;99906.88;20932801;28;20315;-66
2021/09/17 04:34:22;;;;;;;6.07;5.23;;;;;;;14.58;100.00;99901.00;20895931;28;20733;-65
2021/09/17 04:44:26;;;;;;;5.17;4.83;;;;;;;14.62;100.00;99899.72;20947884;28;20953;-66
2021/09/17 04:54:28;;;;;;;4.93;4.53;;;;;;;14.58;100.00;99901.00;20969238;28;20233;-63
2021/09/17 05:04:32;;;;;;;3.83;3.63;;;;;;;14.66;100.00;99909.22;20963729;28;21291;-68
2021/09/17 05:14:34;;;;;;;3.37;3.17;;;;;;;14.68;100.00;99907.25;20909432;28;20234;-67
2021/09/17 05:24:38;;;;;;;3.47;3.17;;;;;;;14.92;100.00;99914.13;20894513;28;20742;-69
2021/09/17 05:34:40;;;;;;;3.63;3.33;;;;;;;15.01;100.00;99897.19;20871764;28;20277;-67
2021/09/17 05:44:44;;;;;;;3.60;3.40;;;;;;;14.98;100.00;99913.56;20893672;28;20368;-65
2021/09/17 05:54:47;;;;;;;4.30;3.87;;;;;;;14.94;100.00;99912.16;20875546;28;20579;-66
2021/09/17 06:04:50;;;;;;;4.60;3.70;;;;;;;14.86;100.00;99917.34;20891097;28;20223;-66
2021/09/17 06:14:56;;;;;;;3.70;3.40;;;;;;;14.99;100.00;99923.34;20880777;28;20323;-66
2021/09/17 06:24:59;;;;;;;3.03;2.83;;;;;;;15.20;100.00;99916.06;20883052;28;20246;-65
2021/09/17 06:35:02;;;;;;;4.13;3.67;;;;;;;15.60;100.00;99909.78;20887444;28;20257;-65
2021/09/17 06:45:09;;;;;;;3.73;3.43;;;;;;;15.52;100.00;99910.44;20873663;28;20231;-66
2021/09/17 06:55:11;;;;;;;4.23;3.93;;;;;;;15.71;100.00;99907.78;20890063;28;20302;-65
2021/09/17 07:05:16;;;;;;;4.17;3.87;;;;;;;16.15;100.00;99906.38;20868454;28;20223;-66
2021/09/17 07:15:18;;;;;;;4.37;4.07;;;;;;;16.52;100.00;99898.34;20890706;28;20662;-66
2021/09/17 07:25:22;;;;;;;4.27;3.87;;;;;;;16.76;100.00;99903.25;20869184;28;20255;-65
2021/09/17 07:35:25;;;;;;;4.50;4.10;;;;;;;16.84;100.00;99897.97;20888235;28;20266;-65
2021/09/17 07:45:28;;;;;;;5.03;4.63;;;;;;;17.14;100.00;99890.56;20886337;28;20234;-66
2021/09/17 07:55:34;;;;;;;5.83;5.33;;;;;;;17.26;100.00;99889.38;20895786;28;20591;-65
2021/09/17 08:05:38;;;;;;;5.83;5.43;;;;;;;17.24;100.00;99894.06;20895278;28;20357;-68
2021/09/17 08:15:40;;;;;;;7.27;6.77;;;;;;;17.11;100.00;99894.41;20886900;28;20231;-66
2021/09/17 08:25:45;;;;;;;6.40;5.90;;;;;;;17.29;100.00;99887.19;20900745;28;20785;-68
2021/09/17 08:35:48;;;;;;;9.37;8.67;;;;;;;17.51;100.00;99896.69;20877654;28;20227;-66
2021/09/17 08:46:14;;;;;;;10.67;9.77;;;;;;;17.43;100.00;99880.44;20899238;28;20228;-67
2021/09/17 08:56:20;;;;;;;14.97;13.83;;;;;;;17.72;100.00;99888.34;20876488;28;20343;-66
2021/09/17 09:06:23;;;;;;;19.57;18.17;;;;;;;17.88;100.00;99895.72;20898251;28;20271;-66
2021/09/17 09:16:26;;;;;;;18.50;17.07;;;;;;;18.76;100.00;99886.56;20879284;28;20249;-68
2021/09/17 09:26:29;;;;;;;19.13;17.57;;;;;;;19.43;100.00;99892.91;20891323;28;20251;-66
2021/09/17 09:36:35;;;;;;;18.23;17.00;;;;;;;19.54;100.00;99889.06;20886495;28;20253;-66
2021/09/17 09:46:39;;;;;;;20.87;19.20;;;;;;;19.73;100.00;99895.00;20882321;28;20285;-66
2021/09/17 09:56:42;;;;;;;18.63;17.23;;;;;;;20.08;100.00;99903.81;20893347;28;20603;-66
2021/09/17 10:06:46;;;;;;;18.37;17.07;;;;;;;19.81;100.00;99890.59;20872111;28;20255;-66
2021/09/17 10:16:49;;;;;;;15.67;14.63;;;;;;;19.37;100.00;99885.44;20893411;28;20247;-65
2021/09/17 10:26:57;;;;;;;10.97;10.17;;;;;;;19.15;100.00;99883.34;20870447;28;20238;-66
2021/09/17 10:36:59;;;;;;;10.77;10.03;;;;;;;18.70;100.00;99876.41;20892349;28;20245;-66
2021/09/17 10:47:03;;;;;;;9.43;8.73;;;;;;;19.52;100.00;99875.72;20873393;28;20234;-66
2021/09/17 10:57:07;;;;;;;6.37;5.97;;;;;;;20.61;100.00;99878.03;20909501;28;20227;-66
2021/09/17 11:07:33;;;;;;;6.30;5.90;;;;;;;21.24;100.00;99869.00;20880102;28;20893;-66
2021/09/17 11:17:41;;;;;;;5.80;5.50;;;;;;;21.77;100.00;99876.28;20887375;28;20235;-65
2021/09/17 11:27:45;;;;;;;5.67;5.17;;;;;;;22.28;99.69;99869.25;20901177;28;20226;-67
2021/09/17 11:37:57;;;;;;;6.17;5.77;;;;;;;21.62;100.00;99862.63;20886071;28;21262;-66
2021/09/17 11:48:01;;;;;;;5.37;5.07;;;;;;;21.62;100.00;99859.91;20904673;28;20245;-66
2021/09/17 11:58:03;;;;;;;5.27;4.97;;;;;;;21.11;100.00;99854.13;20920727;28;20220;-68
2021/09/17 12:08:08;;;;;;;5.50;5.10;;;;;;;20.95;100.00;99843.34;20940804;28;20222;-66
2021/09/17 12:18:11;;;;;;;5.20;4.90;;;;;;;21.10;100.00;99841.56;20917085;28;20306;-67
2021/09/17 12:28:20;;;;;;;5.90;5.50;;;;;;;21.32;100.00;99839.09;20931926;28;20981;-67
2021/09/17 12:38:27;;;;;;;5.50;5.03;;;;;;;21.27;100.00;99836.91;20916330;28;20237;-66
2021/09/17 12:48:37;;;;;;;4.60;4.40;;;;;;;21.21;100.00;99821.34;20928639;28;20251;-65
2021/09/17 12:58:40;;;;;;;4.97;4.67;;;;;;;21.16;100.00;99819.13;20924793;28;20329;-68
2021/09/17 13:08:45;;;;;;;6.03;5.53;;;;;;;20.94;100.00;99824.53;20918000;28;20227;-68
2021/09/17 13:18:48;;;;;;;5.53;5.13;;;;;;;20.90;100.00;99818.59;20922473;28;20235;-64
2021/09/17 13:28:53;;;;;;;5.73;5.43;;;;;;;20.96;100.00;99830.63;20905712;28;20322;-64
2021/09/17 13:38:55;;;;;;;6.73;6.07;;;;;;;20.60;100.00;99828.41;20921134;28;20276;-68
2021/09/17 13:48:59;;;;;;;5.67;5.27;;;;;;;20.47;100.00;99814.53;20903946;28;20668;-64
2021/09/17 13:59:02;;;;;;;3.30;3.00;;;;;;;20.85;100.00;99810.16;20930637;28;20734;-64
2021/09/17 14:09:05;;;;;;;2.63;2.50;;;;;;;20.76;100.00;99812.06;20916551;28;20234;-63
2021/09/17 14:19:08;;;;;;;2.80;2.60;;;;;;;20.72;100.00;99809.88;20918261;28;20234;-63
2021/09/17 14:29:15;;;;;;;5.10;3.40;;;;;;;20.74;100.00;99810.56;20935332;28;20325;-63
2021/09/17 14:39:22;;;;;;;3.43;3.10;;;;;;;20.46;100.00;99804.72;20929671;28;20276;-63
2021/09/17 14:49:27;;;;;;;3.57;3.30;;;;;;;20.35;100.00;99803.22;20952760;28;20227;-72
2021/09/17 14:59:51;;;;;;;4.00;3.70;;;;;;;20.18;100.00;99806.13;20981872;28;20330;-64
2021/09/17 15:10:04;;;;;;;4.17;3.87;;;;;;;19.89;100.00;99801.25;20985990;28;20241;-65
2021/09/17 15:20:09;;;;;;;4.00;3.60;;;;;;;19.46;100.00;99805.97;20964623;28;20243;-66
2021/09/17 15:30:15;;;;;;;4.00;3.70;;;;;;;18.81;100.00;99803.13;20986832;28;20312;-63
2021/09/17 15:40:19;;;;;;;4.17;3.87;;;;;;;18.47;100.00;99813.09;20966127;28;20227;-66
2021/09/17 15:50:24;;;;;;;3.37;3.10;;;;;;;18.39;100.00;99803.09;20983455;28;20237;-63
2021/09/17 16:00:28;;;;;;;3.43;3.23;;;;;;;18.32;100.00;99811.00;20971976;28;20957;-64
2021/09/17 16:10:34;;;;;;;3.60;3.40;;;;;;;18.04;100.00;99812.16;20976703;28;20241;-63
2021/09/17 16:20:39;;;;;;;3.43;3.13;;;;;;;17.82;100.00;99818.09;20979448;28;20836;-63
2021/09/17 16:30:45;;;;;;;3.97;3.57;;;;;;;17.47;100.00;99822.50;20939173;28;20262;-61
2021/09/17 16:40:48;;;;;;;3.80;3.50;;;;;;;17.21;100.00;99813.47;20938055;28;21476;-66
2021/09/17 16:50:55;;;;;;;3.40;3.20;;;;;;;16.98;100.00;99796.03;20918915;28;20699;-70
2021/09/17 17:00:58;;;;;;;3.50;3.20;;;;;;;16.83;100.00;99801.94;20940310;28;20305;-65
2021/09/17 17:11:03;;;;;;;4.97;4.40;;;;;;;16.64;100.00;99799.38;20910570;28;20219;-66
2021/09/17 17:21:07;;;;;;;2.90;2.70;;;;;;;16.49;100.00;99800.81;20922081;28;20641;-66
2021/09/17 17:31:18;;;;;;;2.77;2.57;;;;;;;16.39;100.00;99810.78;20914130;28;20245;-67
2021/09/17 17:41:23;;;;;;;3.50;3.30;;;;;;;16.28;100.00;99819.06;20915739;28;20234;-63
2021/09/17 17:51:30;;;;;;;4.00;3.70;;;;;;;16.05;100.00;99811.34;20913482;28;20234;-65
2021/09/17 18:01:34;;;;;;;3.20;3.00;;;;;;;15.89;100.00;99827.22;20937803;27;20694;-64
2021/09/17 18:11:39;;;;;;;4.17;3.87;;;;;;;15.63;100.00;99818.06;20933030;28;20218;-66
2021/09/17 18:21:44;;;;;;;5.90;5.50;;;;;;;15.43;100.00;99831.47;20912508;28;20609;-67
2021/09/17 18:31:52;;;;;;;5.63;5.23;;;;;;;15.31;100.00;99829.91;20925765;28;20990;-67
2021/09/17 18:41:59;;;;;;;7.83;7.23;;;;;;;15.16;100.00;99831.31;20904015;28;20310;-66
2021/09/17 18:52:05;;;;;;;8.50;7.80;;;;;;;15.12;100.00;99835.25;20923296;28;20230;-66
2021/09/17 19:02:10;;;;;;;8.80;7.97;;;;;;;15.11;100.00;99838.94;20918159;28;20230;-66
2021/09/17 19:12:16;;;;;;;8.67;7.97;;;;;;;15.18;100.00;99840.09;20918745;28;20266;-65
2021/09/17 19:22:19;;;;;;;8.67;7.97;;;;;;;15.28;100.00;99835.56;20914431;28;20247;-67
2021/09/17 19:32:25;;;;;;;6.70;6.20;;;;;;;14.92;100.00;99787.88;20915047;28;20245;-66
2021/09/17 19:42:34;;;;;;;6.37;5.97;;;;;;;15.10;100.00;99831.84;20934856;28;20266;-65
2021/09/17 19:52:48;;;;;;;5.90;5.50;;;;;;;14.90;100.00;99838.19;20935374;28;20234;-69
2021/09/17 20:02:56;;;;;;;5.10;4.80;;;;;;;14.70;100.00;99843.53;20948393;28;20234;-69
2021/09/17 20:13:51;;;;;;;6.00;5.53;;;;;;;14.57;100.00;99840.22;20948752;28;20229;-66
2021/09/17 20:24:01;;;;;;;7.37;5.80;;;;;;;14.44;100.00;99844.97;20953001;28;20237;-67
2021/09/17 20:34:16;;;;;;;6.30;5.80;;;;;;;14.21;100.00;99838.03;20947810;28;20248;-66
2021/09/17 20:44:19;;;;;;;6.63;6.17;;;;;;;13.95;100.00;99838.47;20944701;28;20319;-65
2021/09/17 20:54:23;;;;;;;6.90;6.13;;;;;;;13.81;100.00;99841.47;20941362;28;20247;-63
2021/09/17 21:04:26;;;;;;;6.90;6.30;;;;;;;13.72;100.00;99842.25;20940455;28;21641;-62
2021/09/17 21:14:31;;;;;;;6.37;5.93;;;;;;;13.69;100.00;99842.50;20947040;28;21664;-64
2021/09/17 21:24:33;;;;;;;8.13;7.33;;;;;;;13.74;100.00;99842.97;20963810;27;20771;-68
2021/09/17 21:34:37;;;;;;;8.13;7.43;;;;;;;13.87;100.00;99851.69;20944583;28;20286;-65
2021/09/17 21:44:40;;;;;;;7.10;6.50;;;;;;;13.96;100.00;99850.91;20989955;28;20317;-68
2021/09/17 21:54:43;;;;;;;9.03;8.23;;;;;;;14.01;100.00;99843.28;20989132;28;20764;-68
2021/09/17 22:04:46;;;;;;;9.40;8.43;;;;;;;14.18;100.00;99844.53;20988154;28;20287;-68
2021/09/17 22:14:50;;;;;;;10.70;9.60;;;;;;;14.30;100.00;99834.56;20987835;28;20233;-68
2021/09/17 22:24:53;;;;;;;11.77;10.57;;;;;;;14.41;100.00;99829.13;20987818;28;20878;-68
2021/09/17 22:34:57;;;;;;;10.30;9.40;;;;;;;14.50;100.00;99832.81;21009063;28;20714;-68
2021/09/17 22:44:59;;;;;;;8.90;8.13;;;;;;;14.58;100.00;99831.19;20986931;28;20321;-67
2021/09/17 22:55:04;;;;;;;9.30;8.53;;;;;;;14.66;100.00;99830.50;20986377;28;20258;-67
2021/09/17 23:05:08;;;;;;;7.93;7.33;;;;;;;14.71;100.00;99823.75;20984476;28;20279;-68
2021/09/17 23:15:12;;;;;;;7.97;7.37;;;;;;;14.73;100.00;99819.06;20988236;28;20290;-68
2021/09/17 23:25:14;;;;;;;7.80;7.20;;;;;;;14.77;100.00;99816.94;21001105;28;20234;-67
2021/09/17 23:35:18;;;;;;;7.53;6.83;;;;;;;14.75;100.00;99800.13;20998523;28;20230;-68
2021/09/17 23:45:21;;;;;;;7.77;7.17;;;;;;;14.74;100.00;99814.53;20999812;28;20719;-67
2021/09/17 23:55:25;;;;;;;7.33;6.83;;;;;;;14.78;100.00;99816.81;20999157;28;20721;-67
